Flight ASXV38

  • Submitted By: Krzysztof H. Blaszkow
  • Departure Airport: El Hierro Airport (GCHI)
  • Arrival Airport: La Gomera Airport (GCGM)
  • Aircraft: C 172 (LC-LXZ)
  • Flight Time: 00.34.31
  • Date Submitted: 07/23/2017
  • Status: Accepted
Flight Details
Gross Revenue:
(3 load / € 300.00 per unit
€ 900.00
Fuel Cost:
(11.7934 fuel used @ 0.45 / unit)
€ 5.31

Additional Log Information:

View Log

[20:26] - Cessna Skyhawk 172SP Paint2
[20:26] - Flight ASXV38 is ready to depart GCHI with a final destination of GCGM.
[20:26] - Parking Brake Applied
[20:26] - Navigation Lights ON
[20:26] - Beacon Light ON
[20:26] - Boarding
[20:26] - ADF1 - 376.0
[20:26] - ADF2 - 240.0
[20:26] - NAV1 - 117.70
[20:26] - NAV2 - 116.20
[20:26] - COM1 - 122.80
[20:26] - COM2 - 123.45
[20:26] - Transponder - 7000
[20:27] - Engine 1 Started
[20:27] - Navigation Lights OFF 3AGL
[20:27] - Navigation Lights ON 3AGL
[20:27] - Taxi Lights ON 3AGL
[20:28] - Parking Brake Released
[20:29] - Landing Lights ON 3AGL
[20:29] - Taxi Lights OFF 3AGL
[20:29] - Strobe Lights ON 3AGL
[20:30] - Flaps to position 1
[20:30] - Taxiing to Runway
[20:31] - Taking Off with 3 passengers on board
[20:31] - Take off at 74kts, with a pitch of 3deg and 175lbs of fuel on board
[20:31] - Wind Heading 19 | Wind Speed 11kts | Temperature 23 deg C
[20:31] - METAR Departure: GCHI 231900Z AUTO 36018KT 9999 BKN019/// 23/18 Q1019

[20:31] - Flaps to position 0 at 112ft and 77kts
[20:32] - Climbing to TOC
[20:33] - TOC reached
[20:33] - Cruise started
[20:34] - NAV2 - 112.90
[20:35] - NAV1 - 116.00
[20:35] - AutoPilot Engaged at 2467AGL
[20:36] - Landing Lights OFF 2493AGL
[20:42] - AutoPilot Disengaged at 1798AGL
[20:44] - Landing Lights ON 1785AGL
[20:56] - Flaps to position 1 at 774ft and 111kts
[20:57] - Landed at -182fpm. With 150lbs of fuel onboard and a pitch angle of 2deg.
[20:57] - Wind Heading 23 | Wind Speed 11kts | Temperature 22 deg C
[20:57] - METAR Arrival: GCGM 231930Z AUTO 23005KT 180V260 9999 NCD 23/16 Q1019 RMK R09/VRB02KT ARP/24003KT 160V280

[20:57] - Taxiing to Gate
[20:57] - Taxi Lights ON 3AGL
[20:57] - Landing Lights OFF 3AGL
[20:57] - Strobe Lights OFF 6AGL
[20:58] - Flaps to position 0
[21:00] - Instrument Lights ON 3AGL
[21:00] - Parking Brake Applied
[21:01] - Arrived safely at GCGM. We hope you enjoyed your flight!
[21:01] - Taxi Lights OFF 3AGL
[21:01] - Navigation Lights OFF 3AGL
[21:01] - Engine 1 Stopped
[21:01] - Cessna Skyhawk 172SP Paint2
[21:01] - MaxSim Rate: 1x
[21:01] - SiouxAcars ver: 1.0.1.2

Route Map